PWSweather.com
Personal Weather Stations
Station Observations
KCOBOOMER
Belmont, Pueblo, CO 81001

BelmontPueblo, CO 81001

Lat: 38.2977486, Lon: -104.5754318

Elevation: 4795

Station Type: Davis Vantage Pro 2

http://www.puebloweather.net

Latest ConditionsUpdated 5:25:05 AM MDT Wednesday, Sep 17, 2014
Currently Today's Max Today's Min Today's Average
Temperature 57.4°F14.1°C 66.0°F18.9°C 57.0°F13.9°C 61.4°F16.3°C
Dew Point 41.9°F5.5°C 42.3°F5.7°C 39.0°F3.9°C 41.1°F5.1°C
Winds Calm Calm 16.0 mph WSW25.7 kmh WSW - 1.4 mph 2.3 kmh
Wind Gusts -- -- - -
Humidity 56% 57% 37% 47%
Pressure 29.80 in1009.1 mb 29.84 in1010.5 mb 29.80 in1009.1 mb -
Hour Temp Dew Point Humidity Winds Wind Gusts Pressure Precip Precip Rate Daily Precip Total
05:25 AM 57.4°F14.1°C 41.9°F5.5°C 56% Calm Calm -- 29.80 in1009.1 mb 0.00 in0.0 mm 0.00 in/hr0.0 mm/hr 0.00 in0.0 mm
05:20 AM 57.4°F14.1°C 41.9°F5.5°C 56% Calm Calm -- 29.80 in1009.1 mb 0.00 in0.0 mm 0.00 in/hr0.0 mm/hr 0.00 in0.0 mm
05:15 AM 57.4°F14.1°C 41.9°F5.5°C 56% Calm Calm -- 29.80 in1009.1 mb 0.00 in0.0 mm 0.00 in/hr0.0 mm/hr 0.00 in0.0 mm
05:10 AM 57.5°F14.2°C 41.9°F5.5°C 56% 2.0 mph WSW3.2 kmh WSW -- 29.80 in1009.1 mb 0.00 in0.0 mm 0.00 in/hr0.0 mm/hr 0.00 in0.0 mm
05:05 AM 57.3°F14.1°C 41.8°F5.4°C 56% Calm Calm -- 29.80 in1009.1 mb 0.00 in0.0 mm 0.00 in/hr0.0 mm/hr 0.00 in0.0 mm
05:00 AM 57.1°F13.9°C 41.6°F5.3°C 56% 5.0 mph WSW8.0 kmh WSW -- 29.80 in1009.1 mb 0.00 in0.0 mm 0.00 in/hr0.0 mm/hr 0.00 in0.0 mm
04:55 AM 57.0°F13.9°C 41.9°F5.5°C 57% 2.0 mph WSW3.2 kmh WSW -- 29.80 in1009.1 mb 0.00 in0.0 mm 0.00 in/hr0.0 mm/hr 0.00 in0.0 mm
04:50 AM 57.0°F13.9°C 41.9°F5.5°C 57% Calm Calm -- 29.80 in1009.1 mb 0.00 in0.0 mm 0.00 in/hr0.0 mm/hr 0.00 in0.0 mm
04:45 AM 57.1°F13.9°C 42.0°F5.6°C 57% 3.0 mph WSW4.8 kmh WSW -- 29.80 in1009.1 mb 0.00 in0.0 mm 0.00 in/hr0.0 mm/hr 0.00 in0.0 mm
04:40 AM 57.8°F14.3°C 41.8°F5.4°C 55% 4.0 mph WSW6.4 kmh WSW -- 29.80 in1009.1 mb 0.00 in0.0 mm 0.00 in/hr0.0 mm/hr 0.00 in0.0 mm
04:35 AM 59.2°F15.1°C 42.1°F5.6°C 53% Calm Calm -- 29.80 in1009.1 mb 0.00 in0.0 mm 0.00 in/hr0.0 mm/hr 0.00 in0.0 mm
04:30 AM 60.8°F16.0°C 42.1°F5.6°C 50% 4.0 mph W6.4 kmh W -- 29.80 in1009.1 mb 0.00 in0.0 mm 0.00 in/hr0.0 mm/hr 0.00 in0.0 mm
04:25 AM 61.3°F16.3°C 40.9°F4.9°C 47% Calm Calm -- 29.80 in1009.1 mb 0.00 in0.0 mm 0.00 in/hr0.0 mm/hr 0.00 in0.0 mm
04:20 AM 61.3°F16.3°C 40.9°F4.9°C 47% Calm Calm -- 29.80 in1009.1 mb 0.00 in0.0 mm 0.00 in/hr0.0 mm/hr 0.00 in0.0 mm
04:15 AM 61.4°F16.3°C 41.0°F5.0°C 47% Calm Calm -- 29.80 in1009.1 mb 0.00 in0.0 mm 0.00 in/hr0.0 mm/hr 0.00 in0.0 mm
04:10 AM 61.4°F16.3°C 41.0°F5.0°C 47% Calm Calm -- 29.80 in1009.1 mb 0.00 in0.0 mm 0.00 in/hr0.0 mm/hr 0.00 in0.0 mm
04:05 AM 61.4°F16.3°C 41.0°F5.0°C 47% Calm Calm -- 29.80 in1009.1 mb 0.00 in0.0 mm 0.00 in/hr0.0 mm/hr 0.00 in0.0 mm
04:00 AM 61.5°F16.4°C 41.1°F5.1°C 47% Calm Calm -- 29.80 in1009.1 mb 0.00 in0.0 mm 0.00 in/hr0.0 mm/hr 0.00 in0.0 mm
03:55 AM 61.6°F16.4°C 40.6°F4.8°C 46% Calm Calm -- 29.81 in1009.5 mb 0.00 in0.0 mm 0.00 in/hr0.0 mm/hr 0.00 in0.0 mm
03:50 AM 61.6°F16.4°C 40.6°F4.8°C 46% Calm Calm -- 29.81 in1009.5 mb 0.00 in0.0 mm 0.00 in/hr0.0 mm/hr 0.00 in0.0 mm
03:45 AM 61.5°F16.4°C 41.1°F5.1°C 47% Calm Calm -- 29.81 in1009.5 mb 0.00 in0.0 mm 0.00 in/hr0.0 mm/hr 0.00 in0.0 mm
03:40 AM 61.5°F16.4°C 41.1°F5.1°C 47% 1.0 mph NNW1.6 kmh NNW -- 29.81 in1009.5 mb 0.00 in0.0 mm 0.00 in/hr0.0 mm/hr 0.00 in0.0 mm
03:35 AM 61.5°F16.4°C 40.6°F4.8°C 46% 2.0 mph NNW3.2 kmh NNW -- 29.81 in1009.5 mb 0.00 in0.0 mm 0.00 in/hr0.0 mm/hr 0.00 in0.0 mm
03:30 AM 61.4°F16.3°C 41.0°F5.0°C 47% Calm Calm -- 29.81 in1009.5 mb 0.00 in0.0 mm 0.00 in/hr0.0 mm/hr 0.00 in0.0 mm
03:25 AM 61.3°F16.3°C 40.9°F4.9°C 47% Calm Calm -- 29.81 in1009.5 mb 0.00 in0.0 mm 0.00 in/hr0.0 mm/hr 0.00 in0.0 mm
03:20 AM 61.2°F16.2°C 40.8°F4.9°C 47% Calm Calm -- 29.81 in1009.5 mb 0.00 in0.0 mm 0.00 in/hr0.0 mm/hr 0.00 in0.0 mm
03:15 AM 61.0°F16.1°C 40.7°F4.8°C 47% Calm Calm -- 29.81 in1009.5 mb 0.00 in0.0 mm 0.00 in/hr0.0 mm/hr 0.00 in0.0 mm
03:10 AM 60.8°F16.0°C 41.0°F5.0°C 48% Calm Calm -- 29.82 in1009.8 mb 0.00 in0.0 mm 0.00 in/hr0.0 mm/hr 0.00 in0.0 mm
03:05 AM 60.7°F15.9°C 40.9°F4.9°C 48% 1.0 mph NNW1.6 kmh NNW -- 29.82 in1009.8 mb 0.00 in0.0 mm 0.00 in/hr0.0 mm/hr 0.00 in0.0 mm
03:00 AM 60.5°F15.8°C 40.7°F4.8°C 48% 6.0 mph NNW9.7 kmh NNW -- 29.82 in1009.8 mb 0.00 in0.0 mm 0.00 in/hr0.0 mm/hr 0.00 in0.0 mm
02:55 AM 60.4°F15.8°C 41.2°F5.1°C 49% 2.0 mph NNW3.2 kmh NNW -- 29.82 in1009.8 mb 0.00 in0.0 mm 0.00 in/hr0.0 mm/hr 0.00 in0.0 mm
02:50 AM 60.4°F15.8°C 41.2°F5.1°C 49% Calm Calm -- 29.82 in1009.8 mb 0.00 in0.0 mm 0.00 in/hr0.0 mm/hr 0.00 in0.0 mm
02:45 AM 60.4°F15.8°C 41.2°F5.1°C 49% Calm Calm -- 29.82 in1009.8 mb 0.00 in0.0 mm 0.00 in/hr0.0 mm/hr 0.00 in0.0 mm
02:40 AM 60.4°F15.8°C 41.7°F5.4°C 50% Calm Calm -- 29.82 in1009.8 mb 0.00 in0.0 mm 0.00 in/hr0.0 mm/hr 0.00 in0.0 mm
02:35 AM 60.5°F15.8°C 41.8°F5.4°C 50% 1.0 mph NNW1.6 kmh NNW -- 29.82 in1009.8 mb 0.00 in0.0 mm 0.00 in/hr0.0 mm/hr 0.00 in0.0 mm
02:30 AM 60.5°F15.8°C 41.8°F5.4°C 50% Calm Calm -- 29.83 in1010.2 mb 0.00 in0.0 mm 0.00 in/hr0.0 mm/hr 0.00 in0.0 mm
02:25 AM 60.5°F15.8°C 42.3°F5.7°C 51% 3.0 mph W4.8 kmh W -- 29.83 in1010.2 mb 0.00 in0.0 mm 0.00 in/hr0.0 mm/hr 0.00 in0.0 mm
02:20 AM 60.2°F15.7°C 42.0°F5.6°C 51% 16.0 mph WSW25.7 kmh WSW -- 29.83 in1010.2 mb 0.00 in0.0 mm 0.00 in/hr0.0 mm/hr 0.00 in0.0 mm
02:15 AM 60.1°F15.6°C 41.9°F5.5°C 51% Calm Calm -- 29.83 in1010.2 mb 0.00 in0.0 mm 0.00 in/hr0.0 mm/hr 0.00 in0.0 mm
02:10 AM 60.3°F15.7°C 42.1°F5.6°C 51% Calm Calm -- 29.83 in1010.2 mb 0.00 in0.0 mm 0.00 in/hr0.0 mm/hr 0.00 in0.0 mm
02:05 AM 60.5°F15.8°C 41.8°F5.4°C 50% 10.0 mph WSW16.1 kmh WSW -- 29.83 in1010.2 mb 0.00 in0.0 mm 0.00 in/hr0.0 mm/hr 0.00 in0.0 mm
02:00 AM 60.8°F16.0°C 41.5°F5.3°C 49% 8.0 mph WSW12.9 kmh WSW -- 29.83 in1010.2 mb 0.00 in0.0 mm 0.00 in/hr0.0 mm/hr 0.00 in0.0 mm
01:55 AM 61.3°F16.3°C 41.5°F5.3°C 48% 2.0 mph WSW3.2 kmh WSW -- 29.83 in1010.2 mb 0.00 in0.0 mm 0.00 in/hr0.0 mm/hr 0.00 in0.0 mm
01:50 AM 61.7°F16.5°C 40.2°F4.6°C 45% Calm Calm -- 29.84 in1010.5 mb 0.00 in0.0 mm 0.00 in/hr0.0 mm/hr 0.00 in0.0 mm
01:45 AM 61.7°F16.5°C 40.2°F4.6°C 45% Calm Calm -- 29.83 in1010.2 mb 0.00 in0.0 mm 0.00 in/hr0.0 mm/hr 0.00 in0.0 mm
01:40 AM 61.5°F16.4°C 40.6°F4.8°C 46% 2.0 mph ENE3.2 kmh ENE -- 29.83 in1010.2 mb 0.00 in0.0 mm 0.00 in/hr0.0 mm/hr 0.00 in0.0 mm
01:35 AM 61.3°F16.3°C 40.9°F4.9°C 47% Calm Calm -- 29.83 in1010.2 mb 0.00 in0.0 mm 0.00 in/hr0.0 mm/hr 0.00 in0.0 mm
01:30 AM 61.4°F16.3°C 42.1°F5.6°C 49% Calm Calm -- 29.83 in1010.2 mb 0.00 in0.0 mm 0.00 in/hr0.0 mm/hr 0.00 in0.0 mm
01:25 AM 62.0°F16.7°C 41.6°F5.3°C 47% Calm Calm -- 29.83 in1010.2 mb 0.00 in0.0 mm 0.00 in/hr0.0 mm/hr 0.00 in0.0 mm
01:20 AM 62.8°F17.1°C 41.7°F5.4°C 46% Calm Calm -- 29.83 in1010.2 mb 0.00 in0.0 mm 0.00 in/hr0.0 mm/hr 0.00 in0.0 mm
01:15 AM 63.1°F17.3°C 40.3°F4.6°C 43% Calm Calm -- 29.83 in1010.2 mb 0.00 in0.0 mm 0.00 in/hr0.0 mm/hr 0.00 in0.0 mm
01:10 AM 63.4°F17.4°C 39.9°F4.4°C 42% Calm Calm -- 29.83 in1010.2 mb 0.00 in0.0 mm 0.00 in/hr0.0 mm/hr 0.00 in0.0 mm
01:05 AM 63.8°F17.7°C 39.7°F4.3°C 41% Calm Calm -- 29.83 in1010.2 mb 0.00 in0.0 mm 0.00 in/hr0.0 mm/hr 0.00 in0.0 mm
01:00 AM 64.3°F17.9°C 40.1°F4.5°C 41% Calm Calm -- 29.83 in1010.2 mb 0.00 in0.0 mm 0.00 in/hr0.0 mm/hr 0.00 in0.0 mm
12:55 AM 64.6°F18.1°C 41.0°F5.0°C 42% Calm Calm -- 29.83 in1010.2 mb 0.00 in0.0 mm 0.00 in/hr0.0 mm/hr 0.00 in0.0 mm
12:50 AM 64.7°F18.2°C 40.5°F4.7°C 41% 5.0 mph N8.0 kmh N -- 29.83 in1010.2 mb 0.00 in0.0 mm 0.00 in/hr0.0 mm/hr 0.00 in0.0 mm
12:45 AM 65.0°F18.3°C 40.8°F4.9°C 41% 3.0 mph W4.8 kmh W -- 29.83 in1010.2 mb 0.00 in0.0 mm 0.00 in/hr0.0 mm/hr 0.00 in0.0 mm
12:40 AM 65.4°F18.6°C 40.5°F4.7°C 40% Calm Calm -- 29.83 in1010.2 mb 0.00 in0.0 mm 0.00 in/hr0.0 mm/hr 0.00 in0.0 mm
12:35 AM 65.4°F18.6°C 40.5°F4.7°C 40% 2.0 mph W3.2 kmh W -- 29.83 in1010.2 mb 0.00 in0.0 mm 0.00 in/hr0.0 mm/hr 0.00 in0.0 mm
12:30 AM 65.5°F18.6°C 39.9°F4.4°C 39% 2.0 mph W3.2 kmh W -- 29.83 in1010.2 mb 0.00 in0.0 mm 0.00 in/hr0.0 mm/hr 0.00 in0.0 mm
12:25 AM 65.6°F18.7°C 40.0°F4.4°C 39% Calm Calm -- 29.83 in1010.2 mb 0.00 in0.0 mm 0.00 in/hr0.0 mm/hr 0.00 in0.0 mm
12:20 AM 65.7°F18.7°C 40.1°F4.5°C 39% Calm Calm -- 29.83 in1010.2 mb 0.00 in0.0 mm 0.00 in/hr0.0 mm/hr 0.00 in0.0 mm
12:15 AM 65.7°F18.7°C 40.1°F4.5°C 39% Calm Calm -- 29.83 in1010.2 mb 0.00 in0.0 mm 0.00 in/hr0.0 mm/hr 0.00 in0.0 mm
12:10 AM 65.9°F18.8°C 40.3°F4.6°C 39% 4.0 mph WSW6.4 kmh WSW -- 29.83 in1010.2 mb 0.00 in0.0 mm 0.00 in/hr0.0 mm/hr 0.00 in0.0 mm
12:05 AM 66.0°F18.9°C 39.0°F3.9°C 37% Calm Calm -- 29.83 in1010.2 mb 0.00 in0.0 mm 0.00 in/hr0.0 mm/hr 0.00 in0.0 mm
12:00 AM 66.0°F18.9°C 39.0°F3.9°C 37% Calm Calm -- 29.83 in1010.2 mb 0.00 in0.0 mm 0.00 in/hr0.0 mm/hr 0.00 in0.0 mm